createdAt,value
2022-12-11T00:02:22.103Z,0.45
2022-12-11T00:04:49.796Z,0.57
2022-12-11T00:07:17.399Z,0.48
2022-12-11T00:09:45.038Z,0.47
2022-12-11T00:12:12.718Z,0.54
2022-12-11T00:14:40.316Z,0.52
2022-12-11T00:17:08.024Z,0.22
2022-12-11T00:19:37.205Z,0.56
2022-12-11T00:22:04.874Z,0.60
2022-12-11T00:24:32.590Z,0.65
2022-12-11T00:27:01.487Z,0.60
2022-12-11T00:29:28.911Z,0.71
2022-12-11T00:31:56.612Z,0.70
2022-12-11T00:34:24.568Z,0.69
2022-12-11T00:36:53.700Z,0.60
2022-12-11T00:39:21.322Z,0.66
2022-12-11T00:41:49.063Z,0.67
2022-12-11T00:44:16.753Z,0.74
2022-12-11T00:46:44.423Z,0.78
2022-12-11T00:49:12.021Z,0.82
2022-12-11T00:51:39.707Z,0.91
2022-12-11T00:54:08.708Z,0.80
2022-12-11T00:56:36.197Z,0.91
2022-12-11T00:59:03.935Z,0.86
2022-12-11T01:01:32.015Z,0.89
2022-12-11T01:03:59.748Z,0.98
2022-12-11T01:06:28.765Z,0.85
2022-12-11T01:09:11.469Z,1.04
2022-12-11T01:11:41.112Z,1.01
2022-12-11T01:14:09.940Z,1.02
2022-12-11T01:16:37.773Z,0.97
2022-12-11T01:19:05.466Z,0.96
2022-12-11T01:21:33.068Z,0.91
2022-12-11T01:24:00.678Z,0.92
2022-12-11T01:26:28.555Z,0.91
2022-12-11T01:28:57.593Z,0.96
2022-12-11T01:31:25.257Z,0.95
2022-12-11T01:33:55.264Z,1.19
2022-12-11T01:36:24.059Z,1.00
2022-12-11T01:38:53.561Z,1.10
2022-12-11T01:41:21.734Z,1.07
2022-12-11T01:44:02.861Z,1.05
2022-12-11T01:46:32.184Z,0.97
2022-12-11T01:49:01.704Z,1.01
2022-12-11T01:51:30.734Z,0.97
2022-12-11T01:54:01.596Z,1.01
2022-12-11T01:56:34.771Z,0.93
2022-12-11T01:59:07.677Z,1.02
2022-12-11T02:01:40.610Z,0.97
2022-12-11T02:04:11.032Z,0.98
2022-12-11T02:06:40.214Z,1.00
2022-12-11T02:09:11.321Z,0.96
2022-12-11T02:11:53.859Z,0.96
2022-12-11T02:14:29.827Z,1.03
2022-12-11T02:17:05.774Z,1.22
2022-12-11T02:19:48.684Z,1.08
2022-12-11T02:22:23.592Z,1.20
2022-12-11T02:25:05.409Z,1.13
2022-12-11T02:27:42.313Z,1.20
2022-12-11T02:30:13.797Z,1.08
2022-12-11T02:32:47.005Z,1.10
2022-12-11T02:35:20.629Z,1.12
2022-12-11T02:37:50.708Z,1.13
2022-12-11T02:40:23.044Z,1.11
2022-12-11T02:42:51.652Z,1.13
2022-12-11T02:45:22.981Z,1.26
2022-12-11T02:47:51.514Z,1.33
2022-12-11T02:50:23.374Z,1.20
2022-12-11T02:52:55.687Z,1.27
2022-12-11T02:55:25.518Z,1.40
2022-12-11T02:57:59.173Z,1.14
2022-12-11T03:00:28.271Z,1.21
2022-12-11T03:02:55.960Z,1.28
2022-12-11T03:05:23.665Z,1.16
2022-12-11T03:07:51.375Z,1.10
2022-12-11T03:10:20.835Z,1.06
2022-12-11T03:12:53.647Z,0.98
2022-12-11T03:15:24.736Z,1.17
2022-12-11T03:18:04.834Z,1.22
2022-12-11T03:20:39.056Z,1.05
2022-12-11T03:23:16.349Z,1.05
2022-12-11T03:25:51.599Z,0.99
2022-12-11T03:28:21.647Z,1.02
2022-12-11T03:30:52.751Z,1.04
2022-12-11T03:33:26.758Z,1.02
2022-12-11T03:35:57.769Z,0.97
2022-12-11T03:38:28.277Z,1.04
2022-12-11T03:40:59.835Z,1.05
2022-12-11T03:43:30.003Z,1.02
2022-12-11T03:45:59.529Z,1.01
2022-12-11T03:48:33.524Z,1.04
2022-12-11T03:51:05.343Z,1.00
2022-12-11T03:53:35.156Z,1.00
2022-12-11T03:56:05.503Z,1.00
2022-12-11T03:58:33.349Z,1.00
2022-12-11T04:01:01.188Z,1.02
2022-12-11T04:03:30.285Z,0.98
2022-12-11T04:05:57.954Z,0.98
2022-12-11T04:08:25.713Z,0.69
2022-12-11T04:11:14.031Z,0.96
2022-12-11T04:13:42.604Z,0.94
2022-12-11T04:16:09.700Z,1.02
2022-12-11T04:18:56.253Z,0.99
2022-12-11T04:21:41.684Z,0.98
2022-12-11T04:24:16.376Z,1.01
2022-12-11T04:26:44.280Z,1.07
2022-12-11T04:29:11.998Z,1.05
2022-12-11T04:31:40.064Z,1.27
2022-12-11T04:34:09.087Z,1.14
2022-12-11T04:36:36.731Z,1.07
2022-12-11T04:39:05.795Z,1.06
2022-12-11T04:41:33.528Z,0.98
2022-12-11T04:44:01.330Z,1.10
2022-12-11T04:46:29.054Z,1.28
2022-12-11T04:48:57.933Z,1.34
2022-12-11T04:51:27.388Z,1.47
2022-12-11T04:53:55.657Z,1.22
2022-12-11T04:56:23.431Z,1.16
2022-12-11T04:58:51.239Z,1.27
2022-12-11T05:01:21.557Z,1.17
2022-12-11T05:03:50.267Z,1.28
2022-12-11T05:06:18.377Z,1.20
2022-12-11T05:08:47.374Z,1.14
2022-12-11T05:11:16.669Z,1.03
2022-12-11T05:13:45.331Z,1.10
2022-12-11T05:16:14.796Z,1.05
2022-12-11T05:18:42.522Z,1.01
2022-12-11T05:21:12.019Z,1.11
2022-12-11T05:23:40.128Z,0.97
2022-12-11T05:26:12.995Z,1.05
2022-12-11T05:28:41.199Z,1.01
2022-12-11T05:31:14.213Z,1.02
2022-12-11T05:33:42.005Z,0.93
2022-12-11T05:36:14.618Z,0.98
2022-12-11T05:38:42.307Z,1.01
2022-12-11T05:41:14.228Z,1.19
2022-12-11T05:43:42.421Z,1.08
2022-12-11T05:46:13.750Z,1.16
2022-12-11T05:48:42.837Z,1.01
2022-12-11T05:51:12.164Z,0.86
2022-12-11T05:53:41.291Z,1.01
2022-12-11T05:56:13.206Z,0.88
2022-12-11T05:58:42.134Z,0.97
2022-12-11T06:01:10.585Z,0.97
2022-12-11T06:03:38.583Z,0.90
2022-12-11T06:06:07.530Z,0.95
2022-12-11T06:08:35.624Z,0.97
2022-12-11T06:11:03.600Z,0.89
2022-12-11T06:13:33.079Z,0.86
2022-12-11T06:16:04.444Z,0.93
2022-12-11T06:18:32.512Z,0.89
2022-12-11T06:21:00.175Z,0.92
2022-12-11T06:23:27.801Z,0.95
2022-12-11T06:25:55.417Z,0.91
2022-12-11T06:28:23.047Z,0.91
2022-12-11T06:30:52.308Z,0.85
2022-12-11T06:33:19.945Z,0.85
2022-12-11T06:35:47.564Z,0.79
2022-12-11T06:38:15.250Z,0.78
2022-12-11T06:40:42.986Z,0.86
2022-12-11T06:43:10.786Z,0.84
2022-12-11T06:45:39.006Z,0.83
2022-12-11T06:48:08.230Z,0.84
2022-12-11T06:50:35.854Z,0.77
2022-12-11T06:53:03.494Z,0.80
2022-12-11T06:55:31.340Z,0.76
2022-12-11T06:57:59.008Z,0.72
2022-12-11T07:00:27.195Z,0.74
2022-12-11T07:02:55.070Z,0.82
2022-12-11T07:05:24.724Z,0.76
2022-12-11T07:07:54.409Z,0.74
2022-12-11T07:10:22.158Z,0.75
2022-12-11T07:12:50.139Z,0.75
2022-12-11T07:15:17.884Z,0.69
2022-12-11T07:17:45.529Z,0.65
2022-12-11T07:20:13.453Z,0.61
2022-12-11T07:22:46.474Z,0.65
2022-12-11T07:25:14.786Z,0.59
2022-12-11T07:27:42.632Z,0.60
2022-12-11T07:30:11.654Z,0.67
2022-12-11T07:32:39.323Z,0.67
2022-12-11T07:35:07.469Z,0.68
2022-12-11T07:37:35.141Z,0.66
2022-12-11T07:40:04.348Z,0.76
2022-12-11T07:42:32.158Z,0.73
2022-12-11T07:44:59.823Z,0.81
2022-12-11T07:47:27.476Z,0.83
2022-12-11T07:49:55.120Z,0.81
2022-12-11T07:52:22.755Z,0.90
2022-12-11T07:54:50.907Z,0.86
2022-12-11T07:57:20.008Z,0.82
2022-12-11T07:59:47.948Z,0.79
2022-12-11T08:02:15.625Z,0.68
2022-12-11T08:04:43.323Z,0.76
2022-12-11T08:07:11.013Z,0.78
2022-12-11T08:09:38.709Z,0.85
2022-12-11T08:12:06.885Z,0.69
2022-12-11T08:14:36.078Z,0.77
2022-12-11T08:17:03.698Z,0.74
2022-12-11T08:19:31.432Z,0.51
2022-12-11T08:21:59.064Z,0.64
2022-12-11T08:24:27.577Z,0.66
2022-12-11T08:26:55.245Z,0.72
2022-12-11T08:29:22.884Z,0.67
2022-12-11T08:31:51.928Z,0.57
2022-12-11T08:34:19.532Z,0.69
2022-12-11T08:36:47.252Z,0.63
2022-12-11T08:39:14.999Z,0.61
2022-12-11T08:41:42.861Z,0.63
2022-12-11T08:44:16.549Z,0.68
2022-12-11T08:46:44.793Z,0.66
2022-12-11T08:49:13.750Z,0.60
2022-12-11T08:51:41.216Z,0.62
2022-12-11T08:54:10.866Z,0.68
2022-12-11T08:56:38.566Z,0.63
2022-12-11T08:59:06.260Z,0.68
2022-12-11T09:01:34.109Z,0.77
2022-12-11T09:04:01.819Z,0.75
2022-12-11T09:06:34.027Z,0.74
2022-12-11T09:09:03.997Z,0.76
2022-12-11T09:11:34.142Z,0.63
2022-12-11T09:14:07.158Z,0.68
2022-12-11T09:16:37.692Z,0.71
2022-12-11T09:19:05.451Z,0.63
2022-12-11T09:21:34.986Z,0.87
2022-12-11T09:24:02.757Z,0.81
2022-12-11T09:26:31.207Z,0.87
2022-12-11T09:28:59.662Z,0.92
2022-12-11T09:31:29.222Z,0.89
2022-12-11T09:33:58.653Z,0.74
2022-12-11T09:36:26.979Z,0.99
2022-12-11T09:38:56.074Z,0.87
2022-12-11T09:41:40.937Z,0.93
2022-12-11T09:44:18.928Z,0.91
2022-12-11T09:46:47.541Z,0.95
2022-12-11T09:49:24.385Z,1.04
2022-12-11T09:52:01.353Z,1.13
2022-12-11T09:54:30.642Z,1.07
2022-12-11T09:57:06.265Z,1.01
2022-12-11T09:59:42.469Z,0.97
2022-12-11T10:02:26.509Z,1.07
2022-12-11T10:05:07.969Z,1.16
2022-12-11T10:07:42.886Z,1.19
2022-12-11T10:10:21.709Z,1.29
2022-12-11T10:12:52.604Z,1.34
2022-12-11T10:15:30.714Z,1.26
2022-12-11T10:18:04.841Z,1.20
2022-12-11T10:20:36.517Z,1.33
2022-12-11T10:23:07.290Z,1.13
2022-12-11T10:25:38.659Z,1.30
2022-12-11T10:28:13.861Z,1.35
2022-12-11T10:30:48.932Z,1.39
2022-12-11T10:33:22.809Z,1.42
2022-12-11T10:35:53.209Z,1.52
2022-12-11T10:38:28.489Z,1.41
2022-12-11T10:40:59.536Z,1.34
2022-12-11T10:43:35.228Z,1.49
2022-12-11T10:46:03.395Z,1.39
2022-12-11T10:48:31.208Z,1.40
2022-12-11T10:51:03.486Z,1.73
2022-12-11T10:53:32.487Z,1.75
2022-12-11T10:56:02.785Z,1.51
2022-12-11T10:58:34.249Z,1.36
2022-12-11T11:01:08.678Z,1.26
2022-12-11T11:03:43.787Z,1.36
2022-12-11T11:06:17.683Z,1.69
2022-12-11T11:08:46.969Z,1.70
2022-12-11T11:11:26.856Z,1.57
2022-12-11T11:14:07.080Z,1.44
2022-12-11T11:16:38.300Z,1.41
2022-12-11T11:19:06.500Z,1.60
2022-12-11T11:21:35.920Z,1.78
2022-12-11T11:24:04.560Z,1.99
2022-12-11T11:27:11.215Z,2.13
2022-12-11T11:29:30.039Z,2.01
2022-12-11T11:31:57.927Z,1.64
2022-12-11T11:34:26.155Z,1.56
2022-12-11T11:36:58.673Z,1.69
2022-12-11T11:39:32.179Z,1.82
2022-12-11T11:42:09.036Z,1.58
2022-12-11T11:44:43.001Z,1.42
2022-12-11T11:47:17.005Z,1.32
2022-12-11T11:49:54.246Z,1.44
2022-12-11T11:52:26.990Z,1.47
2022-12-11T11:55:06.485Z,1.46
2022-12-11T11:57:42.971Z,1.45
2022-12-11T12:00:20.633Z,1.43
2022-12-11T12:02:49.117Z,1.51
2022-12-11T12:05:23.742Z,1.71
2022-12-11T12:08:02.376Z,1.67
2022-12-11T12:10:35.917Z,1.60
2022-12-11T12:13:44.335Z,1.50
2022-12-11T12:16:02.753Z,1.63
2022-12-11T12:18:39.607Z,1.58
2022-12-11T12:21:16.415Z,1.55
2022-12-11T12:24:06.397Z,1.61
2022-12-11T12:26:36.796Z,1.66
2022-12-11T12:29:19.773Z,1.77
2022-12-11T12:32:00.128Z,1.79
2022-12-11T12:34:42.350Z,1.78
2022-12-11T12:37:18.430Z,2.01
2022-12-11T12:39:56.008Z,2.12
2022-12-11T12:42:33.689Z,2.07
2022-12-11T12:45:09.996Z,1.98
2022-12-11T12:47:38.976Z,1.90
2022-12-11T12:50:13.591Z,1.91
2022-12-11T12:52:42.524Z,1.86
2022-12-11T12:55:22.908Z,1.86
2022-12-11T12:57:53.556Z,1.95
2022-12-11T13:00:35.635Z,1.96
2022-12-11T13:03:13.926Z,2.13
2022-12-11T13:05:44.234Z,1.94
2022-12-11T13:08:13.969Z,2.00
2022-12-11T13:10:43.932Z,2.06
2022-12-11T13:13:31.522Z,1.98
2022-12-11T13:16:10.656Z,1.79
2022-12-11T13:18:40.372Z,1.80
2022-12-11T13:21:27.515Z,1.89
2022-12-11T13:23:55.760Z,1.88
2022-12-11T13:26:31.364Z,1.68
2022-12-11T13:28:59.805Z,1.72
2022-12-11T13:31:36.352Z,1.65
2022-12-11T13:34:19.711Z,1.75
2022-12-11T13:36:49.914Z,1.80
2022-12-11T13:39:21.038Z,1.84
2022-12-11T13:41:53.281Z,1.78
2022-12-11T13:44:25.632Z,1.74
2022-12-11T13:46:57.180Z,1.74
2022-12-11T13:49:27.585Z,1.80
2022-12-11T13:51:58.404Z,1.67
2022-12-11T13:54:26.962Z,1.71
2022-12-11T13:57:01.163Z,1.86
2022-12-11T13:59:32.812Z,1.79
2022-12-11T14:02:11.211Z,1.93
2022-12-11T14:04:39.355Z,1.85
2022-12-11T14:07:09.927Z,1.70
2022-12-11T14:09:40.802Z,1.70
2022-12-11T14:12:14.798Z,1.74
2022-12-11T14:14:46.566Z,1.68
2022-12-11T14:17:21.475Z,1.68
2022-12-11T14:19:49.878Z,1.75
2022-12-11T14:22:20.314Z,1.63
2022-12-11T14:24:52.217Z,1.70
2022-12-11T14:27:20.525Z,1.65
2022-12-11T14:29:48.921Z,1.67
2022-12-11T14:32:25.858Z,1.66
2022-12-11T14:34:54.711Z,1.77
2022-12-11T14:37:23.903Z,1.75
2022-12-11T14:39:58.712Z,1.84
2022-12-11T14:42:30.503Z,1.96
2022-12-11T14:45:02.235Z,1.95
2022-12-11T14:47:35.057Z,1.94
2022-12-11T14:50:06.811Z,1.67
2022-12-11T14:52:39.159Z,1.56
2022-12-11T14:55:10.488Z,1.49
2022-12-11T14:57:40.739Z,1.48
2022-12-11T15:00:09.839Z,1.45
2022-12-11T15:02:39.166Z,1.46
2022-12-11T15:05:15.835Z,1.42
2022-12-11T15:07:45.690Z,1.64
2022-12-11T15:10:31.242Z,1.67
2022-12-11T15:13:00.174Z,1.69
2022-12-11T15:15:31.088Z,1.76
2022-12-11T15:18:03.050Z,1.75
2022-12-11T15:20:31.764Z,1.69
2022-12-11T15:23:02.627Z,1.72
2022-12-11T15:25:32.428Z,1.60
2022-12-11T15:28:01.771Z,1.53
2022-12-11T15:30:33.692Z,1.48
2022-12-11T15:33:22.181Z,1.22
2022-12-11T15:36:00.302Z,1.16
2022-12-11T15:38:33.600Z,1.33
2022-12-11T15:41:02.256Z,1.42
2022-12-11T15:43:33.349Z,1.40
2022-12-11T15:46:02.582Z,1.63
2022-12-11T15:48:31.803Z,1.48
2022-12-11T15:50:59.995Z,1.40
2022-12-11T15:53:27.661Z,1.43
2022-12-11T15:55:55.605Z,1.55
2022-12-11T15:58:25.765Z,1.69
2022-12-11T16:00:53.493Z,1.50
2022-12-11T16:03:22.809Z,1.70
2022-12-11T16:05:54.109Z,1.65
2022-12-11T16:08:23.968Z,1.65
2022-12-11T16:10:54.547Z,1.28
2022-12-11T16:13:23.063Z,1.33
2022-12-11T16:15:52.248Z,1.34
2022-12-11T16:18:23.523Z,1.26
2022-12-11T16:20:53.289Z,1.30
2022-12-11T16:23:21.389Z,1.25
2022-12-11T16:25:49.087Z,1.26
2022-12-11T16:28:20.657Z,1.35
2022-12-11T16:30:48.614Z,1.36
2022-12-11T16:33:16.590Z,1.26
2022-12-11T16:35:44.399Z,1.29
2022-12-11T16:38:13.547Z,1.25
2022-12-11T16:40:41.545Z,1.20
2022-12-11T16:43:09.395Z,1.26
2022-12-11T16:45:37.105Z,1.30
2022-12-11T16:48:05.659Z,1.18
2022-12-11T16:50:33.428Z,1.27
2022-12-11T16:53:01.236Z,1.19
2022-12-11T16:55:30.316Z,1.11
2022-12-11T16:57:58.074Z,1.09
2022-12-11T17:00:25.880Z,1.06
2022-12-11T17:02:53.716Z,1.13
2022-12-11T17:05:22.606Z,1.14
2022-12-11T17:07:50.784Z,1.19
2022-12-11T17:10:18.599Z,1.29
2022-12-11T17:12:47.706Z,1.27
2022-12-11T17:15:15.334Z,1.32
2022-12-11T17:17:43.228Z,1.20
2022-12-11T17:20:11.479Z,1.27
2022-12-11T17:22:39.225Z,1.25
2022-12-11T17:25:07.569Z,1.34
2022-12-11T17:27:35.724Z,1.38
2022-12-11T17:30:05.529Z,1.36
2022-12-11T17:32:33.176Z,1.29
2022-12-11T17:35:00.884Z,1.20
2022-12-11T17:37:28.556Z,1.34
2022-12-11T17:39:56.244Z,1.47
2022-12-11T17:42:23.902Z,1.46
2022-12-11T17:44:51.576Z,1.22
2022-12-11T17:47:20.626Z,1.21
2022-12-11T17:49:48.512Z,1.24
2022-12-11T17:52:16.199Z,1.26
2022-12-11T17:54:43.863Z,1.05
2022-12-11T17:57:11.627Z,1.15
2022-12-11T17:59:39.350Z,1.16
2022-12-11T18:02:07.569Z,1.33
2022-12-11T18:04:38.912Z,1.48
2022-12-11T18:07:06.929Z,1.30
2022-12-11T18:09:34.516Z,1.17
2022-12-11T18:12:02.236Z,1.13
2022-12-11T18:14:29.950Z,1.28
2022-12-11T18:16:57.595Z,1.30
2022-12-11T18:19:26.993Z,1.43
2022-12-11T18:21:56.291Z,1.40
2022-12-11T18:24:25.748Z,1.28
2022-12-11T18:26:53.353Z,1.15
2022-12-11T18:29:21.020Z,1.15
2022-12-11T18:31:48.855Z,1.12
2022-12-11T18:34:16.706Z,1.00
2022-12-11T18:36:44.537Z,0.97
2022-12-11T18:39:13.601Z,1.06
2022-12-11T18:41:41.328Z,1.06
2022-12-11T18:44:10.136Z,1.07
2022-12-11T18:46:39.319Z,1.08
2022-12-11T18:49:07.218Z,1.07
2022-12-11T18:51:34.890Z,0.95
2022-12-11T18:54:02.537Z,0.86
2022-12-11T18:56:31.505Z,0.88
2022-12-11T18:58:58.947Z,0.87
2022-12-11T19:01:28.890Z,0.83
2022-12-11T19:04:02.754Z,0.79
2022-12-11T19:06:35.275Z,0.93
2022-12-11T19:09:03.706Z,0.86
2022-12-11T19:11:34.708Z,0.78
2022-12-11T19:14:02.611Z,0.75
2022-12-11T19:16:33.592Z,0.78
2022-12-11T19:19:02.971Z,0.78
2022-12-11T19:21:31.335Z,0.94
2022-12-11T19:23:59.672Z,0.93
2022-12-11T19:26:27.502Z,0.95
2022-12-11T19:29:00.052Z,1.16
2022-12-11T19:31:29.444Z,1.07
2022-12-11T19:33:57.928Z,1.16
2022-12-11T19:36:28.289Z,1.03
2022-12-11T19:39:01.468Z,1.04
2022-12-11T19:41:31.388Z,0.92
2022-12-11T19:44:00.986Z,1.02
2022-12-11T19:46:29.938Z,0.95
2022-12-11T19:48:58.121Z,0.77
2022-12-11T19:51:28.486Z,0.88
2022-12-11T19:53:56.455Z,0.83
2022-12-11T19:56:24.236Z,0.71
2022-12-11T19:58:51.872Z,0.67
2022-12-11T20:01:24.930Z,0.83
2022-12-11T20:03:53.033Z,0.79
2022-12-11T20:06:20.856Z,0.80
2022-12-11T20:08:48.894Z,0.82
2022-12-11T20:11:18.921Z,0.96
2022-12-11T20:13:47.357Z,1.00
2022-12-11T20:16:16.245Z,1.09
2022-12-11T20:18:45.459Z,1.06
2022-12-11T20:21:15.369Z,0.96
2022-12-11T20:23:43.988Z,0.91
2022-12-11T20:26:13.627Z,0.81
2022-12-11T20:28:41.760Z,0.63
2022-12-11T20:31:19.543Z,0.83
2022-12-11T20:33:49.954Z,0.63
2022-12-11T20:36:20.057Z,0.75
2022-12-11T20:38:48.207Z,0.88
2022-12-11T20:41:18.343Z,0.95
2022-12-11T20:43:46.436Z,0.92
2022-12-11T20:46:15.989Z,0.74
2022-12-11T20:48:45.787Z,0.64
2022-12-11T20:51:25.462Z,0.64
2022-12-11T20:53:59.229Z,0.65
2022-12-11T20:56:30.449Z,0.54
2022-12-11T20:59:00.944Z,0.56
2022-12-11T21:01:31.159Z,0.65
2022-12-11T21:04:00.719Z,0.54
2022-12-11T21:06:33.577Z,0.64
2022-12-11T21:09:03.854Z,0.63
2022-12-11T21:11:31.974Z,0.71
2022-12-11T21:13:59.791Z,0.58
2022-12-11T21:16:28.488Z,0.52
2022-12-11T21:18:56.406Z,0.43
2022-12-11T21:21:24.595Z,0.43
2022-12-11T21:23:54.112Z,0.55
2022-12-11T21:26:22.257Z,0.66
2022-12-11T21:28:50.193Z,0.44
2022-12-11T21:31:20.290Z,0.48
2022-12-11T21:33:48.737Z,0.54
2022-12-11T21:36:17.103Z,0.65
2022-12-11T21:38:46.064Z,0.78
2022-12-11T21:41:16.297Z,0.65
2022-12-11T21:44:14.618Z,0.55
2022-12-11T21:46:32.977Z,0.76
2022-12-11T21:49:01.027Z,0.85
2022-12-11T21:51:35.936Z,0.81
2022-12-11T21:54:06.910Z,0.88
2022-12-11T21:56:35.960Z,0.73
2022-12-11T21:59:03.826Z,0.61
2022-12-11T22:01:35.026Z,0.65
2022-12-11T22:04:04.782Z,0.67
2022-12-11T22:06:32.856Z,0.77
2022-12-11T22:09:01.015Z,0.94
2022-12-11T22:11:31.078Z,0.40
2022-12-11T22:14:00.701Z,0.48
2022-12-11T22:16:28.405Z,0.35
2022-12-11T22:18:56.487Z,0.42
2022-12-11T22:21:24.485Z,0.39
2022-12-11T22:23:52.508Z,0.39
2022-12-11T22:26:23.217Z,0.35
2022-12-11T22:28:52.275Z,0.55
2022-12-11T22:31:24.048Z,0.55
2022-12-11T22:33:53.716Z,0.53
2022-12-11T22:36:22.214Z,0.42
2022-12-11T22:38:50.400Z,0.45
2022-12-11T22:41:24.205Z,0.35
2022-12-11T22:43:52.234Z,0.36
2022-12-11T22:46:23.820Z,0.42
2022-12-11T22:48:52.298Z,0.61
2022-12-11T22:51:20.654Z,0.38
2022-12-11T22:53:48.659Z,0.53
2022-12-11T22:56:16.751Z,0.51
2022-12-11T22:58:44.564Z,0.43
2022-12-11T23:01:14.523Z,0.28
2022-12-11T23:03:43.954Z,0.39
2022-12-11T23:06:14.203Z,0.49
2022-12-11T23:08:43.295Z,0.45
2022-12-11T23:11:13.592Z,0.33
2022-12-11T23:13:41.731Z,0.43
2022-12-11T23:16:10.111Z,0.56
2022-12-11T23:18:38.347Z,0.44
2022-12-11T23:21:08.068Z,0.59
2022-12-11T23:23:35.945Z,0.73
2022-12-11T23:26:03.833Z,0.73
2022-12-11T23:28:31.585Z,0.64
2022-12-11T23:30:59.748Z,0.43
2022-12-11T23:33:27.564Z,0.33
2022-12-11T23:35:55.592Z,0.37
2022-12-11T23:38:24.650Z,0.49
2022-12-11T23:40:52.775Z,0.55
2022-12-11T23:43:20.891Z,0.48
2022-12-11T23:45:49.046Z,0.44
2022-12-11T23:48:16.722Z,0.35
2022-12-11T23:50:45.173Z,0.37
2022-12-11T23:53:13.495Z,0.30
2022-12-11T23:55:45.519Z,0.32
2022-12-11T23:58:13.626Z,0.33
